Time,TemperatureF,DewpointF,PressureIn,WindDirection,WindDirectionDegrees,WindSpeedMPH,WindSpeedGustMPH,Humidity,HourlyPrecipIn,Conditions,Clouds,dailyrainin,SoftwareType,DateUTC
2013-08-07 00:00:00,62.2,61.7,29.71,WNW,292,0.0,0.0,98,0.00,,SKC,0.00,VWS V14.01,2013-08-07 05:00:00,
2013-08-07 00:20:00,62.2,61.7,29.71,SSE,158,0.0,0.0,98,0.00,,SKC,0.00,VWS V14.01,2013-08-07 05:20:00,
2013-08-07 00:40:00,62.2,61.7,29.71,SSE,158,0.0,0.0,98,0.00,,SKC,0.00,VWS V14.01,2013-08-07 05:40:00,
2013-08-07 01:00:00,62.1,61.5,29.71,SSE,158,0.0,0.0,98,0.00,,SKC,0.00,VWS V14.01,2013-08-07 06:00:00,
2013-08-07 01:20:00,62.2,61.7,29.71,SSE,158,0.0,0.0,98,0.00,,SKC,0.00,VWS V14.01,2013-08-07 06:20:00,
2013-08-07 01:40:00,62.2,61.7,29.71,SSE,158,0.0,0.0,98,0.00,,SKC,0.00,VWS V14.01,2013-08-07 06:40:00,
2013-08-07 02:00:00,62.2,61.7,29.71,WNW,292,0.0,0.0,98,0.00,,SKC,0.00,VWS V14.01,2013-08-07 07:00:00,
2013-08-07 02:20:00,62.4,61.8,29.74,WNW,292,0.0,0.0,98,0.00,,SKC,0.00,VWS V14.01,2013-08-07 07:20:00,
2013-08-07 02:40:00,62.1,61.5,29.71,SE,135,0.0,0.0,98,0.00,,SKC,0.00,VWS V14.01,2013-08-07 07:40:00,
2013-08-07 03:00:00,61.9,61.3,29.74,SE,135,0.0,0.0,98,0.00,,SKC,0.00,VWS V14.01,2013-08-07 08:00:00,
2013-08-07 03:20:00,61.3,60.8,29.74,SE,135,0.0,0.0,98,0.00,,SKC,0.00,VWS V14.01,2013-08-07 08:20:00,
2013-08-07 03:40:00,61.3,60.8,29.74,SE,135,0.0,0.0,98,0.00,,SKC,0.00,VWS V14.01,2013-08-07 08:40:00,
2013-08-07 04:00:00,61.3,60.8,29.74,SE,135,0.0,0.0,98,0.00,,SKC,0.00,VWS V14.01,2013-08-07 09:00:00,
2013-08-07 04:20:00,61.2,60.6,29.74,ESE,112,0.0,0.0,98,0.00,,SKC,0.00,VWS V14.01,2013-08-07 09:20:00,
2013-08-07 04:40:00,60.8,60.2,29.74,NNE,22,0.0,0.0,98,0.00,,SKC,0.00,VWS V14.01,2013-08-07 09:40:00,
2013-08-07 05:00:00,60.4,59.9,29.74,East,90,0.0,0.0,98,0.00,,SKC,0.00,VWS V14.01,2013-08-07 10:00:00,
2013-08-07 05:20:00,59.9,59.3,29.74,South,180,0.0,0.0,98,0.00,,SKC,0.00,VWS V14.01,2013-08-07 10:20:00,
2013-08-07 05:40:00,59.7,59.2,29.74,ESE,112,0.0,0.0,98,0.00,,SKC,0.00,VWS V14.01,2013-08-07 10:40:00,
2013-08-07 06:00:00,59.9,59.3,29.74,ESE,112,0.0,0.0,98,0.00,,SKC,0.00,VWS V14.01,2013-08-07 11:00:00,
2013-08-07 06:20:00,59.9,59.3,29.74,East,90,0.0,0.0,98,0.05,,SKC,0.05,VWS V14.01,2013-08-07 11:20:00,
2013-08-07 06:40:00,59.9,59.3,29.74,ENE,68,0.0,3.9,98,0.05,,SKC,0.05,VWS V14.01,2013-08-07 11:40:00,
2013-08-07 07:00:00,59.5,59.0,29.74,NE,45,0.0,5.1,98,0.05,,SKC,0.05,VWS V14.01,2013-08-07 12:00:00,
2013-08-07 07:20:00,59.5,59.0,29.76,ENE,68,1.3,5.5,98,0.05,,SKC,0.05,VWS V14.01,2013-08-07 12:20:00,
2013-08-07 07:40:00,59.4,58.8,29.76,WNW,292,2.6,9.4,98,0.00,,SKC,0.05,VWS V14.01,2013-08-07 12:40:00,
2013-08-07 08:00:00,59.5,59.0,29.76,SSW,202,0.0,5.5,98,0.00,,SKC,0.05,VWS V14.01,2013-08-07 13:00:00,
2013-08-07 08:20:00,59.9,59.3,29.76,ESE,112,0.0,2.0,98,0.00,,SKC,0.05,VWS V14.01,2013-08-07 13:20:00,
2013-08-07 08:40:00,60.1,59.5,29.79,NNE,22,0.0,6.7,98,0.00,,SKC,0.05,VWS V14.01,2013-08-07 13:40:00,
2013-08-07 09:00:00,60.6,59.8,29.79,South,180,2.8,6.3,97,0.00,,SKC,0.05,VWS V14.01,2013-08-07 14:00:00,
2013-08-07 09:20:00,60.6,59.2,29.82,SSW,202,0.0,5.9,95,0.00,,SKC,0.05,VWS V14.01,2013-08-07 14:20:00,
2013-08-07 09:40:00,63.1,60.2,29.79,East,90,1.8,5.5,90,0.00,,SKC,0.05,VWS V14.01,2013-08-07 14:40:00,
2013-08-07 10:00:00,65.5,60.9,29.79,NNE,22,1.8,11.0,85,0.00,,SKC,0.05,VWS V14.01,2013-08-07 15:00:00,
2013-08-07 10:20:00,66.6,56.9,29.82,East,90,1.5,8.6,71,0.00,,SKC,0.05,VWS V14.01,2013-08-07 15:20:00,
2013-08-07 10:40:00,67.5,54.9,29.82,SSE,158,4.6,7.4,64,0.00,,SKC,0.05,VWS V14.01,2013-08-07 15:40:00,
2013-08-07 11:00:00,68.9,56.7,29.85,WSW,248,2.6,8.6,65,0.00,,SKC,0.05,VWS V14.01,2013-08-07 16:00:00,
2013-08-07 11:20:00,69.3,53.4,29.85,ENE,68,3.6,8.6,57,0.00,,SKC,0.05,VWS V14.01,2013-08-07 16:20:00,
2013-08-07 11:40:00,70.3,52.9,29.85,North,0,2.8,9.8,54,0.00,,SKC,0.05,VWS V14.01,2013-08-07 16:40:00,
2013-08-07 12:00:00,71.8,54.3,29.85,NNE,22,2.3,5.9,54,0.00,,SKC,0.05,VWS V14.01,2013-08-07 17:00:00,
2013-08-07 12:20:00,71.6,53.1,29.88,ENE,68,3.3,7.4,52,0.00,,SKC,0.05,VWS V14.01,2013-08-07 17:20:00,
2013-08-07 12:40:00,72.3,52.7,29.88,NNW,338,0.0,8.6,50,0.00,,SKC,0.05,VWS V14.01,2013-08-07 17:40:00,
2013-08-07 13:00:00,71.6,49.2,29.91,NNW,338,2.8,11.4,45,0.00,,SKC,0.05,VWS V14.01,2013-08-07 18:00:00,
2013-08-07 13:20:00,72.0,49.5,29.88,East,90,2.8,7.0,45,0.00,,SKC,0.05,VWS V14.01,2013-08-07 18:20:00,
2013-08-07 13:40:00,72.0,48.9,29.88,NNW,338,2.3,6.3,44,0.00,,SKC,0.05,VWS V14.01,2013-08-07 18:40:00,
2013-08-07 14:00:00,72.0,47.6,29.88,West,270,1.8,7.0,42,0.00,,SKC,0.05,VWS V14.01,2013-08-07 19:00:00,
2013-08-07 14:20:00,72.7,48.9,29.88,NW,315,3.6,7.4,43,0.00,,SKC,0.05,VWS V14.01,2013-08-07 19:20:00,
2013-08-07 14:40:00,70.9,47.9,29.91,WNW,292,2.8,9.4,44,0.00,,SKC,0.05,VWS V14.01,2013-08-07 19:40:00,
2013-08-07 15:00:00,72.1,49.7,29.88,NNW,338,2.8,9.8,45,0.00,,SKC,0.05,VWS V14.01,2013-08-07 20:00:00,
2013-08-07 15:20:00,71.4,47.2,29.91,NNE,22,2.6,6.3,42,0.00,,SKC,0.05,VWS V14.01,2013-08-07 20:20:00,
2013-08-07 15:40:00,70.9,48.5,29.88,NW,315,2.8,4.7,45,0.00,,SKC,0.05,VWS V14.01,2013-08-07 20:40:00,
2013-08-07 16:00:00,70.7,47.7,29.88,SSW,202,0.0,6.7,44,0.00,,SKC,0.05,VWS V14.01,2013-08-07 21:00:00,
2013-08-07 16:20:00,71.1,49.3,29.91,SSE,158,0.0,6.7,46,0.00,,SKC,0.05,VWS V14.01,2013-08-07 21:20:00,
2013-08-07 16:40:00,69.6,49.1,29.88,North,0,1.5,4.7,48,0.00,,SKC,0.05,VWS V14.01,2013-08-07 21:40:00,
2013-08-07 17:00:00,70.5,49.9,29.91,ENE,68,2.8,5.5,48,0.00,,SKC,0.05,VWS V14.01,2013-08-07 22:00:00,
2013-08-07 17:20:00,69.6,49.1,29.88,SSE,158,2.3,5.1,48,0.00,,SKC,0.05,VWS V14.01,2013-08-07 22:20:00,
2013-08-07 17:40:00,69.4,49.5,29.91,WNW,292,0.0,7.0,49,0.00,,SKC,0.05,VWS V14.01,2013-08-07 22:40:00,
2013-08-07 18:00:00,69.4,47.2,29.91,WNW,292,2.3,5.9,45,0.00,,SKC,0.05,VWS V14.01,2013-08-07 23:00:00,
2013-08-07 18:20:00,69.4,47.2,29.91,East,90,2.3,5.1,45,0.00,,SKC,0.05,VWS V14.01,2013-08-07 23:20:00,
2013-08-07 18:40:00,68.4,49.5,29.91,NE,45,0.0,6.3,51,0.00,,SKC,0.05,VWS V14.01,2013-08-07 23:40:00,
2013-08-07 19:00:00,67.3,50.1,29.91,NW,315,0.0,5.5,54,0.00,,SKC,0.05,VWS V14.01,2013-08-08 00:00:00,
2013-08-07 19:20:00,65.8,51.1,29.88,ENE,68,0.0,3.9,59,0.00,,SKC,0.05,VWS V14.01,2013-08-08 00:20:00,
2013-08-07 19:40:00,64.8,51.5,29.91,East,90,0.0,0.0,62,0.00,,SKC,0.05,VWS V14.01,2013-08-08 00:40:00,
2013-08-07 20:00:00,63.1,51.6,29.91,East,90,0.0,0.0,66,0.00,,SKC,0.05,VWS V14.01,2013-08-08 01:00:00,
2013-08-07 20:20:00,61.7,51.8,29.91,East,90,0.0,0.0,70,0.00,,SKC,0.05,VWS V14.01,2013-08-08 01:20:00,
2013-08-07 20:40:00,60.1,51.0,29.91,East,90,0.0,0.0,72,0.00,,SKC,0.05,VWS V14.01,2013-08-08 01:40:00,
2013-08-07 21:00:00,58.8,51.3,29.91,East,90,0.0,0.0,76,0.00,,SKC,0.05,VWS V14.01,2013-08-08 02:00:00,
2013-08-07 21:20:00,57.7,51.3,29.94,East,90,0.0,0.0,79,0.00,,SKC,0.05,VWS V14.01,2013-08-08 02:20:00,
2013-08-07 21:40:00,56.7,50.9,29.94,East,90,0.0,0.0,81,0.00,,SKC,0.05,VWS V14.01,2013-08-08 02:40:00,
2013-08-07 22:00:00,55.8,50.7,29.91,East,90,0.0,0.0,83,0.00,,SKC,0.05,VWS V14.01,2013-08-08 03:00:00,
2013-08-07 22:20:00,54.9,50.1,29.94,East,90,0.0,0.0,84,0.00,,SKC,0.05,VWS V14.01,2013-08-08 03:20:00,
2013-08-07 22:40:00,54.1,49.7,29.91,East,90,0.0,0.0,85,0.00,,SKC,0.05,VWS V14.01,2013-08-08 03:40:00,
2013-08-07 23:00:00,53.4,49.7,29.91,East,90,0.0,0.0,87,0.00,,SKC,0.05,VWS V14.01,2013-08-08 04:00:00,
2013-08-07 23:20:00,52.5,49.1,29.91,East,90,0.0,0.0,88,0.00,,SKC,0.05,VWS V14.01,2013-08-08 04:20:00,
2013-08-07 23:40:00,52.0,48.8,29.91,East,90,0.0,0.0,89,0.00,,SKC,0.05,VWS V14.01,2013-08-08 04:40:00,